This is the latest recevied weather packets stored in our database for station/object HK4LRM-13. If no packets are shown the sender has not sent any weather packets the latest 10 day(s).
| Time | Temp. | Humidity | Pressure | Rain* | Wind** | Luminosity | Snow |
|---|---|---|---|---|---|---|---|
| 1788136372 | 76° F | 61% | 761.3 mmHg | 0.01 in | - | - | - |
| 1788135831 | 76° F | 61% | 760.6 mmHg | 0.01 in | - | - | - |
| 1788135290 | 76° F | 61% | 759.8 mmHg | 0 in | - | - | - |
| 1788134750 | 76° F | 61% | 759.8 mmHg | 0 in | - | - | - |
| 1788133671 | 74° F | 73% | 759.8 mmHg | 0 in | - | - | - |
| 1788133130 | 74° F | 73% | 759.1 mmHg | 0.01 in | - | - | - |
| 1788132590 | 74° F | 73% | 759.1 mmHg | 0.01 in | - | - | - |
| 1788132049 | 74° F | 73% | 759.1 mmHg | 0.01 in | - | - | - |
| 1788131174 | 83° F | 39% | 759.1 mmHg | 0.01 in | - | - | - |
| 1788130634 | 83° F | 39% | 759.1 mmHg | 0.01 in | - | - | - |
| 1788130093 | 83° F | 39% | 759.1 mmHg | 0.01 in | - | - | - |
| 1788129552 | 74° F | 53% | 757.6 mmHg | 0 in | - | - | - |
| 1788129012 | 74° F | 53% | 757.6 mmHg | 0 in | - | - | - |
| 1788126767 | 75° F | 53% | 757.6 mmHg | 0 in | - | - | - |
| 1788126227 | 75° F | 53% | 757.6 mmHg | 0 in | - | - | - |
| 1788125687 | 76° F | 53% | 757.6 mmHg | 0 in | - | - | - |
| 1788125146 | 76° F | 53% | 757.6 mmHg | 0 in | - | - | - |
| 1788124606 | 77° F | 53% | 757.6 mmHg | 0 in | - | - | - |
| 1788124065 | 77° F | 53% | 757.6 mmHg | 0 in | - | - | - |
| 1788123525 | 77° F | 53% | 757.6 mmHg | 0 in | - | - | - |
| 1788122984 | 78° F | 53% | 757.6 mmHg | 0 in | - | - | - |
| 1788122444 | 79° F | 53% | 756.8 mmHg | 0 in | - | - | - |
| 1788121903 | 79° F | 53% | 756.8 mmHg | 0 in | - | - | - |
| 1788121363 | 78° F | 55% | 756.8 mmHg | 0 in | - | - | - |
| 1788120822 | 78° F | 56% | 756.8 mmHg | 0 in | - | - | - |
* Rain latest hour (hover to see other rain measurements)
** Current wind speed in m/s (hover to see current wind gust speed)